sensor_id;sensor_type;location;lat;lon;timestamp;P1;durP1;ratioP1;P2;durP2;ratioP2
15712;SDS011;7957;51.608;6.916;2023-02-19T00:00:10;23.37;;;21.10;;
15712;SDS011;7957;51.608;6.916;2023-02-19T00:02:41;23.97;;;21.73;;
15712;SDS011;7957;51.608;6.916;2023-02-19T00:05:09;25.50;;;23.00;;
15712;SDS011;7957;51.608;6.916;2023-02-19T00:07:36;25.73;;;23.10;;
15712;SDS011;7957;51.608;6.916;2023-02-19T00:10:03;23.77;;;21.40;;
15712;SDS011;7957;51.608;6.916;2023-02-19T00:12:30;25.47;;;22.97;;
15712;SDS011;7957;51.608;6.916;2023-02-19T00:14:57;26.33;;;23.60;;
15712;SDS011;7957;51.608;6.916;2023-02-19T00:17:23;27.50;;;24.70;;
15712;SDS011;7957;51.608;6.916;2023-02-19T00:19:52;26.63;;;24.03;;
15712;SDS011;7957;51.608;6.916;2023-02-19T00:22:18;27.33;;;24.50;;
15712;SDS011;7957;51.608;6.916;2023-02-19T00:24:45;26.07;;;23.50;;
15712;SDS011;7957;51.608;6.916;2023-02-19T00:27:13;27.80;;;25.10;;
15712;SDS011;7957;51.608;6.916;2023-02-19T00:29:40;27.97;;;25.30;;
15712;SDS011;7957;51.608;6.916;2023-02-19T00:32:07;26.30;;;23.67;;
15712;SDS011;7957;51.608;6.916;2023-02-19T00:34:34;26.30;;;23.80;;
15712;SDS011;7957;51.608;6.916;2023-02-19T00:37:02;26.77;;;24.10;;
15712;SDS011;7957;51.608;6.916;2023-02-19T00:39:29;26.70;;;24.27;;
15712;SDS011;7957;51.608;6.916;2023-02-19T00:41:56;27.90;;;25.17;;
15712;SDS011;7957;51.608;6.916;2023-02-19T00:44:24;26.67;;;24.17;;
15712;SDS011;7957;51.608;6.916;2023-02-19T00:46:51;27.67;;;25.13;;
15712;SDS011;7957;51.608;6.916;2023-02-19T00:49:19;26.17;;;23.67;;
15712;SDS011;7957;51.608;6.916;2023-02-19T00:51:47;26.50;;;23.90;;
15712;SDS011;7957;51.608;6.916;2023-02-19T00:54:16;26.77;;;24.30;;
15712;SDS011;7957;51.608;6.916;2023-02-19T00:56:43;27.70;;;24.93;;
15712;SDS011;7957;51.608;6.916;2023-02-19T00:59:10;23.93;;;21.73;;
15712;SDS011;7957;51.608;6.916;2023-02-19T01:01:37;25.43;;;23.03;;
15712;SDS011;7957;51.608;6.916;2023-02-19T01:04:05;24.50;;;22.27;;
15712;SDS011;7957;51.608;6.916;2023-02-19T01:06:32;25.50;;;23.10;;
15712;SDS011;7957;51.608;6.916;2023-02-19T01:08:59;24.93;;;22.60;;
15712;SDS011;7957;51.608;6.916;2023-02-19T01:11:28;25.50;;;23.07;;
15712;SDS011;7957;51.608;6.916;2023-02-19T01:13:55;25.63;;;23.20;;
15712;SDS011;7957;51.608;6.916;2023-02-19T01:16:23;26.17;;;23.57;;
15712;SDS011;7957;51.608;6.916;2023-02-19T01:18:51;27.00;;;24.27;;
15712;SDS011;7957;51.608;6.916;2023-02-19T01:21:20;25.93;;;23.37;;
15712;SDS011;7957;51.608;6.916;2023-02-19T01:23:48;26.50;;;23.97;;
15712;SDS011;7957;51.608;6.916;2023-02-19T01:26:17;26.30;;;23.80;;
15712;SDS011;7957;51.608;6.916;2023-02-19T01:28:47;24.07;;;21.77;;
15712;SDS011;7957;51.608;6.916;2023-02-19T01:31:15;26.17;;;23.67;;
15712;SDS011;7957;51.608;6.916;2023-02-19T01:33:43;24.57;;;22.07;;
15712;SDS011;7957;51.608;6.916;2023-02-19T01:36:11;26.23;;;23.57;;
15712;SDS011;7957;51.608;6.916;2023-02-19T01:38:38;26.03;;;23.53;;
15712;SDS011;7957;51.608;6.916;2023-02-19T01:41:06;29.10;;;26.23;;
15712;SDS011;7957;51.608;6.916;2023-02-19T01:46:24;29.87;;;26.87;;
15712;SDS011;7957;51.608;6.916;2023-02-19T01:48:51;27.70;;;25.00;;
15712;SDS011;7957;51.608;6.916;2023-02-19T01:51:20;27.57;;;24.37;;
15712;SDS011;7957;51.608;6.916;2023-02-19T01:53:49;28.07;;;24.67;;
15712;SDS011;7957;51.608;6.916;2023-02-19T01:56:19;26.53;;;23.83;;
15712;SDS011;7957;51.608;6.916;2023-02-19T01:58:47;27.03;;;24.00;;
15712;SDS011;7957;51.608;6.916;2023-02-19T02:01:16;26.37;;;23.53;;
15712;SDS011;7957;51.608;6.916;2023-02-19T02:03:43;27.23;;;24.50;;
15712;SDS011;7957;51.608;6.916;2023-02-19T02:06:14;27.17;;;24.40;;
15712;SDS011;7957;51.608;6.916;2023-02-19T02:08:46;26.03;;;23.33;;
15712;SDS011;7957;51.608;6.916;2023-02-19T02:11:33;26.87;;;24.13;;
15712;SDS011;7957;51.608;6.916;2023-02-19T02:14:01;28.13;;;24.63;;
15712;SDS011;7957;51.608;6.916;2023-02-19T02:16:32;27.27;;;23.90;;
15712;SDS011;7957;51.608;6.916;2023-02-19T02:19:16;26.13;;;23.33;;
15712;SDS011;7957;51.608;6.916;2023-02-19T02:22:00;27.13;;;23.83;;
15712;SDS011;7957;51.608;6.916;2023-02-19T02:24:36;27.30;;;24.50;;
15712;SDS011;7957;51.608;6.916;2023-02-19T02:27:26;28.33;;;25.07;;
15712;SDS011;7957;51.608;6.916;2023-02-19T02:30:07;27.17;;;24.27;;
15712;SDS011;7957;51.608;6.916;2023-02-19T02:32:44;26.07;;;23.13;;
15712;SDS011;7957;51.608;6.916;2023-02-19T02:35:20;28.40;;;24.23;;
15712;SDS011;7957;51.608;6.916;2023-02-19T02:37:49;29.07;;;23.87;;
15712;SDS011;7957;51.608;6.916;2023-02-19T02:40:21;29.63;;;23.57;;
15712;SDS011;7957;51.608;6.916;2023-02-19T02:42:48;27.70;;;23.37;;
15712;SDS011;7957;51.608;6.916;2023-02-19T02:45:27;25.30;;;22.00;;
15712;SDS011;7957;51.608;6.916;2023-02-19T02:50:49;30.10;;;22.50;;
15712;SDS011;7957;51.608;6.916;2023-02-19T02:53:22;26.27;;;22.50;;
15712;SDS011;7957;51.608;6.916;2023-02-19T02:56:11;30.93;;;21.70;;
15712;SDS011;7957;51.608;6.916;2023-02-19T02:58:40;27.80;;;21.97;;
15712;SDS011;7957;51.608;6.916;2023-02-19T03:01:11;28.73;;;21.97;;
15712;SDS011;7957;51.608;6.916;2023-02-19T03:04:00;28.67;;;21.80;;
15712;SDS011;7957;51.608;6.916;2023-02-19T03:06:30;26.33;;;21.00;;
15712;SDS011;7957;51.608;6.916;2023-02-19T03:09:01;29.40;;;21.87;;
15712;SDS011;7957;51.608;6.916;2023-02-19T03:11:36;30.57;;;21.27;;
15712;SDS011;7957;51.608;6.916;2023-02-19T03:14:24;28.77;;;20.67;;
15712;SDS011;7957;51.608;6.916;2023-02-19T03:17:27;25.40;;;21.07;;
15712;SDS011;7957;51.608;6.916;2023-02-19T03:20:16;27.63;;;20.27;;
15712;SDS011;7957;51.608;6.916;2023-02-19T03:22:47;25.50;;;20.63;;
15712;SDS011;7957;51.608;6.916;2023-02-19T03:25:17;27.57;;;19.60;;
15712;SDS011;7957;51.608;6.916;2023-02-19T03:28:04;27.87;;;20.23;;
15712;SDS011;7957;51.608;6.916;2023-02-19T03:30:35;25.47;;;18.73;;
15712;SDS011;7957;51.608;6.916;2023-02-19T03:33:07;24.67;;;20.63;;
15712;SDS011;7957;51.608;6.916;2023-02-19T03:35:39;27.57;;;19.80;;
15712;SDS011;7957;51.608;6.916;2023-02-19T03:38:09;25.17;;;18.30;;
15712;SDS011;7957;51.608;6.916;2023-02-19T03:40:43;23.50;;;18.80;;
15712;SDS011;7957;51.608;6.916;2023-02-19T03:43:17;26.03;;;18.40;;
15712;SDS011;7957;51.608;6.916;2023-02-19T03:45:48;22.70;;;18.23;;
15712;SDS011;7957;51.608;6.916;2023-02-19T03:48:23;20.43;;;17.43;;
15712;SDS011;7957;51.608;6.916;2023-02-19T03:51:00;21.97;;;17.77;;
15712;SDS011;7957;51.608;6.916;2023-02-19T03:53:48;25.67;;;18.47;;
15712;SDS011;7957;51.608;6.916;2023-02-19T03:56:22;21.33;;;17.40;;
15712;SDS011;7957;51.608;6.916;2023-02-19T03:58:55;22.67;;;17.50;;
15712;SDS011;7957;51.608;6.916;2023-02-19T04:01:27;21.03;;;17.57;;
15712;SDS011;7957;51.608;6.916;2023-02-19T04:04:00;23.63;;;17.50;;
15712;SDS011;7957;51.608;6.916;2023-02-19T04:06:33;23.43;;;17.77;;
15712;SDS011;7957;51.608;6.916;2023-02-19T04:09:03;22.03;;;17.27;;
15712;SDS011;7957;51.608;6.916;2023-02-19T04:11:33;21.40;;;17.23;;
15712;SDS011;7957;51.608;6.916;2023-02-19T04:14:03;25.50;;;17.70;;
15712;SDS011;7957;51.608;6.916;2023-02-19T04:16:35;22.80;;;16.43;;
15712;SDS011;7957;51.608;6.916;2023-02-19T04:19:07;23.50;;;17.50;;
15712;SDS011;7957;51.608;6.916;2023-02-19T04:21:37;19.20;;;16.10;;
15712;SDS011;7957;51.608;6.916;2023-02-19T04:24:07;20.83;;;16.73;;
15712;SDS011;7957;51.608;6.916;2023-02-19T04:26:40;20.53;;;16.20;;
15712;SDS011;7957;51.608;6.916;2023-02-19T04:29:09;24.63;;;17.33;;
15712;SDS011;7957;51.608;6.916;2023-02-19T04:31:36;21.60;;;16.20;;
15712;SDS011;7957;51.608;6.916;2023-02-19T04:34:03;20.93;;;16.23;;
15712;SDS011;7957;51.608;6.916;2023-02-19T04:36:32;23.40;;;16.07;;
15712;SDS011;7957;51.608;6.916;2023-02-19T04:38:59;21.97;;;16.20;;
15712;SDS011;7957;51.608;6.916;2023-02-19T04:41:26;22.70;;;16.80;;
15712;SDS011;7957;51.608;6.916;2023-02-19T04:43:53;22.10;;;16.43;;
15712;SDS011;7957;51.608;6.916;2023-02-19T04:46:20;23.00;;;16.60;;
15712;SDS011;7957;51.608;6.916;2023-02-19T04:48:47;22.67;;;16.57;;
15712;SDS011;7957;51.608;6.916;2023-02-19T04:51:14;21.40;;;16.23;;
15712;SDS011;7957;51.608;6.916;2023-02-19T04:53:42;23.93;;;15.73;;
15712;SDS011;7957;51.608;6.916;2023-02-19T04:56:10;19.70;;;16.23;;
15712;SDS011;7957;51.608;6.916;2023-02-19T04:58:38;21.03;;;16.77;;
15712;SDS011;7957;51.608;6.916;2023-02-19T05:01:06;21.43;;;15.23;;
15712;SDS011;7957;51.608;6.916;2023-02-19T05:03:33;19.63;;;15.57;;
15712;SDS011;7957;51.608;6.916;2023-02-19T05:06:01;19.27;;;15.90;;
15712;SDS011;7957;51.608;6.916;2023-02-19T05:08:28;17.57;;;15.17;;
15712;SDS011;7957;51.608;6.916;2023-02-19T05:10:57;21.87;;;15.70;;
15712;SDS011;7957;51.608;6.916;2023-02-19T05:13:24;23.07;;;16.57;;
15712;SDS011;7957;51.608;6.916;2023-02-19T05:15:55;20.03;;;15.20;;
15712;SDS011;7957;51.608;6.916;2023-02-19T05:18:23;20.47;;;15.50;;
15712;SDS011;7957;51.608;6.916;2023-02-19T05:20:50;20.40;;;15.67;;
15712;SDS011;7957;51.608;6.916;2023-02-19T05:23:17;20.73;;;15.83;;
15712;SDS011;7957;51.608;6.916;2023-02-19T05:25:45;18.90;;;15.80;;
15712;SDS011;7957;51.608;6.916;2023-02-19T05:28:14;22.67;;;15.23;;
15712;SDS011;7957;51.608;6.916;2023-02-19T05:30:44;21.07;;;16.00;;
15712;SDS011;7957;51.608;6.916;2023-02-19T05:33:12;20.97;;;15.43;;
15712;SDS011;7957;51.608;6.916;2023-02-19T05:35:39;21.50;;;16.97;;
15712;SDS011;7957;51.608;6.916;2023-02-19T05:38:07;21.20;;;15.77;;
15712;SDS011;7957;51.608;6.916;2023-02-19T05:40:35;23.80;;;16.20;;
15712;SDS011;7957;51.608;6.916;2023-02-19T05:43:03;21.87;;;15.67;;
15712;SDS011;7957;51.608;6.916;2023-02-19T05:45:31;21.10;;;16.07;;
15712;SDS011;7957;51.608;6.916;2023-02-19T05:47:58;20.10;;;14.77;;
15712;SDS011;7957;51.608;6.916;2023-02-19T05:50:25;21.10;;;14.97;;
15712;SDS011;7957;51.608;6.916;2023-02-19T05:52:52;21.10;;;15.70;;
15712;SDS011;7957;51.608;6.916;2023-02-19T05:55:19;23.53;;;14.90;;
15712;SDS011;7957;51.608;6.916;2023-02-19T05:57:47;19.13;;;14.83;;
15712;SDS011;7957;51.608;6.916;2023-02-19T06:00:15;19.43;;;14.30;;
15712;SDS011;7957;51.608;6.916;2023-02-19T06:02:44;19.80;;;14.80;;
15712;SDS011;7957;51.608;6.916;2023-02-19T06:05:11;19.03;;;14.70;;
15712;SDS011;7957;51.608;6.916;2023-02-19T06:07:39;21.30;;;14.27;;
15712;SDS011;7957;51.608;6.916;2023-02-19T06:10:07;19.40;;;14.07;;
15712;SDS011;7957;51.608;6.916;2023-02-19T06:12:34;18.30;;;13.57;;
15712;SDS011;7957;51.608;6.916;2023-02-19T06:15:01;16.97;;;13.33;;
15712;SDS011;7957;51.608;6.916;2023-02-19T06:17:28;19.07;;;13.17;;
15712;SDS011;7957;51.608;6.916;2023-02-19T06:19:57;18.93;;;13.50;;
15712;SDS011;7957;51.608;6.916;2023-02-19T06:22:24;19.40;;;13.67;;
15712;SDS011;7957;51.608;6.916;2023-02-19T06:24:51;18.83;;;13.20;;
15712;SDS011;7957;51.608;6.916;2023-02-19T06:27:18;17.00;;;12.70;;
15712;SDS011;7957;51.608;6.916;2023-02-19T06:29:45;18.00;;;13.63;;
15712;SDS011;7957;51.608;6.916;2023-02-19T06:32:12;16.93;;;12.67;;
15712;SDS011;7957;51.608;6.916;2023-02-19T06:34:39;19.30;;;13.33;;
15712;SDS011;7957;51.608;6.916;2023-02-19T06:37:07;16.70;;;12.40;;
15712;SDS011;7957;51.608;6.916;2023-02-19T06:39:34;16.43;;;12.67;;
15712;SDS011;7957;51.608;6.916;2023-02-19T06:42:01;18.33;;;12.40;;
15712;SDS011;7957;51.608;6.916;2023-02-19T06:44:28;19.20;;;12.73;;
15712;SDS011;7957;51.608;6.916;2023-02-19T06:46:55;16.87;;;12.00;;
15712;SDS011;7957;51.608;6.916;2023-02-19T06:49:22;16.60;;;12.27;;
15712;SDS011;7957;51.608;6.916;2023-02-19T06:51:49;16.20;;;11.97;;
15712;SDS011;7957;51.608;6.916;2023-02-19T06:54:18;16.80;;;12.43;;
15712;SDS011;7957;51.608;6.916;2023-02-19T06:56:44;13.73;;;11.47;;
15712;SDS011;7957;51.608;6.916;2023-02-19T06:59:23;16.07;;;11.23;;
15712;SDS011;7957;51.608;6.916;2023-02-19T07:01:50;15.83;;;11.43;;
15712;SDS011;7957;51.608;6.916;2023-02-19T07:04:17;16.63;;;11.00;;
15712;SDS011;7957;51.608;6.916;2023-02-19T07:06:44;13.17;;;10.47;;
15712;SDS011;7957;51.608;6.916;2023-02-19T07:09:12;14.60;;;10.80;;
15712;SDS011;7957;51.608;6.916;2023-02-19T07:11:40;13.57;;;11.10;;
15712;SDS011;7957;51.608;6.916;2023-02-19T07:14:09;18.67;;;11.97;;
15712;SDS011;7957;51.608;6.916;2023-02-19T07:16:40;15.87;;;11.40;;
15712;SDS011;7957;51.608;6.916;2023-02-19T07:19:08;15.70;;;11.00;;
15712;SDS011;7957;51.608;6.916;2023-02-19T07:21:36;13.97;;;11.07;;
15712;SDS011;7957;51.608;6.916;2023-02-19T07:24:03;13.30;;;10.90;;
15712;SDS011;7957;51.608;6.916;2023-02-19T07:26:30;13.07;;;10.40;;
15712;SDS011;7957;51.608;6.916;2023-02-19T07:28:59;13.83;;;10.40;;
15712;SDS011;7957;51.608;6.916;2023-02-19T07:31:27;14.83;;;10.43;;
15712;SDS011;7957;51.608;6.916;2023-02-19T07:33:54;13.67;;;10.70;;
15712;SDS011;7957;51.608;6.916;2023-02-19T07:36:21;16.40;;;11.30;;
15712;SDS011;7957;51.608;6.916;2023-02-19T07:38:51;13.50;;;10.27;;
15712;SDS011;7957;51.608;6.916;2023-02-19T07:41:20;15.50;;;10.67;;
15712;SDS011;7957;51.608;6.916;2023-02-19T07:43:47;13.03;;;10.30;;
15712;SDS011;7957;51.608;6.916;2023-02-19T07:46:16;13.03;;;10.03;;
15712;SDS011;7957;51.608;6.916;2023-02-19T07:48:43;14.23;;;9.90;;
15712;SDS011;7957;51.608;6.916;2023-02-19T07:51:11;13.87;;;10.03;;
15712;SDS011;7957;51.608;6.916;2023-02-19T07:53:40;13.80;;;10.30;;
15712;SDS011;7957;51.608;6.916;2023-02-19T07:56:08;14.63;;;10.37;;
15712;SDS011;7957;51.608;6.916;2023-02-19T07:58:36;11.63;;;9.87;;
15712;SDS011;7957;51.608;6.916;2023-02-19T08:01:08;11.63;;;9.80;;
15712;SDS011;7957;51.608;6.916;2023-02-19T08:03:37;13.57;;;9.93;;
15712;SDS011;7957;51.608;6.916;2023-02-19T08:06:04;13.40;;;10.00;;
15712;SDS011;7957;51.608;6.916;2023-02-19T08:08:31;12.00;;;9.77;;
15712;SDS011;7957;51.608;6.916;2023-02-19T08:10:59;13.47;;;9.80;;
15712;SDS011;7957;51.608;6.916;2023-02-19T08:13:46;11.07;;;9.73;;
15712;SDS011;7957;51.608;6.916;2023-02-19T08:16:14;10.77;;;9.67;;
15712;SDS011;7957;51.608;6.916;2023-02-19T08:18:44;10.53;;;9.43;;
15712;SDS011;7957;51.608;6.916;2023-02-19T08:21:11;14.87;;;9.87;;
15712;SDS011;7957;51.608;6.916;2023-02-19T08:23:39;14.33;;;9.43;;
15712;SDS011;7957;51.608;6.916;2023-02-19T08:26:06;15.73;;;9.20;;
15712;SDS011;7957;51.608;6.916;2023-02-19T08:28:33;12.73;;;9.53;;
15712;SDS011;7957;51.608;6.916;2023-02-19T08:31:01;15.97;;;10.53;;
15712;SDS011;7957;51.608;6.916;2023-02-19T08:33:31;15.03;;;10.07;;
15712;SDS011;7957;51.608;6.916;2023-02-19T08:36:01;16.27;;;9.60;;
15712;SDS011;7957;51.608;6.916;2023-02-19T08:38:29;13.87;;;9.57;;
15712;SDS011;7957;51.608;6.916;2023-02-19T08:40:56;14.80;;;9.80;;
15712;SDS011;7957;51.608;6.916;2023-02-19T08:43:23;12.53;;;9.93;;
15712;SDS011;7957;51.608;6.916;2023-02-19T08:45:51;14.63;;;10.73;;
15712;SDS011;7957;51.608;6.916;2023-02-19T08:48:19;15.50;;;10.50;;
15712;SDS011;7957;51.608;6.916;2023-02-19T08:50:51;16.07;;;10.30;;
15712;SDS011;7957;51.608;6.916;2023-02-19T08:53:20;20.90;;;10.90;;
15712;SDS011;7957;51.608;6.916;2023-02-19T08:55:47;15.60;;;10.63;;
15712;SDS011;7957;51.608;6.916;2023-02-19T08:58:14;16.57;;;10.93;;
15712;SDS011;7957;51.608;6.916;2023-02-19T09:00:41;14.93;;;10.00;;
15712;SDS011;7957;51.608;6.916;2023-02-19T09:03:08;20.00;;;10.93;;
15712;SDS011;7957;51.608;6.916;2023-02-19T09:05:36;12.97;;;9.80;;
15712;SDS011;7957;51.608;6.916;2023-02-19T09:08:03;14.37;;;10.10;;
15712;SDS011;7957;51.608;6.916;2023-02-19T09:10:31;17.23;;;10.23;;
15712;SDS011;7957;51.608;6.916;2023-02-19T09:12:58;15.13;;;10.13;;
15712;SDS011;7957;51.608;6.916;2023-02-19T09:15:26;16.70;;;10.67;;
15712;SDS011;7957;51.608;6.916;2023-02-19T09:17:53;15.00;;;10.43;;
15712;SDS011;7957;51.608;6.916;2023-02-19T09:20:21;16.57;;;10.17;;
15712;SDS011;7957;51.608;6.916;2023-02-19T09:22:47;14.67;;;9.90;;
15712;SDS011;7957;51.608;6.916;2023-02-19T09:25:15;15.67;;;10.37;;
15712;SDS011;7957;51.608;6.916;2023-02-19T09:27:43;13.80;;;9.83;;
15712;SDS011;7957;51.608;6.916;2023-02-19T09:30:10;13.83;;;9.80;;
15712;SDS011;7957;51.608;6.916;2023-02-19T09:32:37;13.27;;;10.37;;
15712;SDS011;7957;51.608;6.916;2023-02-19T09:35:05;16.53;;;10.50;;
15712;SDS011;7957;51.608;6.916;2023-02-19T09:37:32;13.73;;;10.33;;
15712;SDS011;7957;51.608;6.916;2023-02-19T09:39:59;14.47;;;10.33;;
15712;SDS011;7957;51.608;6.916;2023-02-19T09:42:27;14.90;;;10.57;;
15712;SDS011;7957;51.608;6.916;2023-02-19T09:44:56;15.33;;;10.20;;
15712;SDS011;7957;51.608;6.916;2023-02-19T09:47:26;13.93;;;10.37;;
15712;SDS011;7957;51.608;6.916;2023-02-19T09:49:55;13.37;;;9.93;;
15712;SDS011;7957;51.608;6.916;2023-02-19T09:52:26;15.07;;;10.60;;
15712;SDS011;7957;51.608;6.916;2023-02-19T09:54:58;16.27;;;9.70;;
15712;SDS011;7957;51.608;6.916;2023-02-19T09:57:28;12.97;;;9.20;;
15712;SDS011;7957;51.608;6.916;2023-02-19T10:00:00;14.17;;;9.90;;
15712;SDS011;7957;51.608;6.916;2023-02-19T10:02:30;13.77;;;9.63;;
15712;SDS011;7957;51.608;6.916;2023-02-19T10:04:58;11.77;;;8.90;;
15712;SDS011;7957;51.608;6.916;2023-02-19T10:07:29;13.40;;;9.20;;
15712;SDS011;7957;51.608;6.916;2023-02-19T10:10:09;11.87;;;8.17;;
15712;SDS011;7957;51.608;6.916;2023-02-19T10:12:49;14.20;;;8.50;;
15712;SDS011;7957;51.608;6.916;2023-02-19T10:15:20;11.97;;;8.00;;
15712;SDS011;7957;51.608;6.916;2023-02-19T10:17:51;10.90;;;7.53;;
15712;SDS011;7957;51.608;6.916;2023-02-19T10:20:19;9.47;;;7.43;;
15712;SDS011;7957;51.608;6.916;2023-02-19T10:22:48;12.93;;;7.13;;
15712;SDS011;7957;51.608;6.916;2023-02-19T10:25:20;10.50;;;7.37;;
15712;SDS011;7957;51.608;6.916;2023-02-19T10:27:47;11.13;;;7.20;;
15712;SDS011;7957;51.608;6.916;2023-02-19T10:30:16;12.27;;;7.57;;
15712;SDS011;7957;51.608;6.916;2023-02-19T10:32:57;10.60;;;7.60;;
15712;SDS011;7957;51.608;6.916;2023-02-19T10:35:29;12.27;;;7.23;;
15712;SDS011;7957;51.608;6.916;2023-02-19T10:38:00;9.03;;;6.80;;
15712;SDS011;7957;51.608;6.916;2023-02-19T10:40:29;9.47;;;6.83;;
15712;SDS011;7957;51.608;6.916;2023-02-19T10:42:57;11.47;;;7.43;;
15712;SDS011;7957;51.608;6.916;2023-02-19T10:45:29;10.50;;;7.00;;
15712;SDS011;7957;51.608;6.916;2023-02-19T10:48:00;11.10;;;7.20;;
15712;SDS011;7957;51.608;6.916;2023-02-19T10:50:29;12.47;;;7.03;;
15712;SDS011;7957;51.608;6.916;2023-02-19T10:52:58;8.77;;;6.83;;
15712;SDS011;7957;51.608;6.916;2023-02-19T10:55:30;11.23;;;7.20;;
15712;SDS011;7957;51.608;6.916;2023-02-19T10:58:19;9.13;;;6.10;;
15712;SDS011;7957;51.608;6.916;2023-02-19T11:03:37;10.60;;;6.27;;
15712;SDS011;7957;51.608;6.916;2023-02-19T11:06:05;13.00;;;6.97;;
15712;SDS011;7957;51.608;6.916;2023-02-19T11:08:43;7.33;;;6.27;;
15712;SDS011;7957;51.608;6.916;2023-02-19T11:11:20;9.27;;;6.30;;
15712;SDS011;7957;51.608;6.916;2023-02-19T11:14:11;8.37;;;6.03;;
15712;SDS011;7957;51.608;6.916;2023-02-19T11:16:42;8.40;;;6.20;;
15712;SDS011;7957;51.608;6.916;2023-02-19T11:19:22;8.60;;;5.93;;
15712;SDS011;7957;51.608;6.916;2023-02-19T11:21:55;7.23;;;6.03;;
15712;SDS011;7957;51.608;6.916;2023-02-19T11:24:25;7.23;;;5.63;;
15712;SDS011;7957;51.608;6.916;2023-02-19T11:26:58;8.80;;;6.00;;
15712;SDS011;7957;51.608;6.916;2023-02-19T11:29:25;6.53;;;5.00;;
15712;SDS011;7957;51.608;6.916;2023-02-19T11:32:00;5.63;;;5.17;;
15712;SDS011;7957;51.608;6.916;2023-02-19T11:34:48;5.90;;;5.20;;
15712;SDS011;7957;51.608;6.916;2023-02-19T11:37:15;6.53;;;5.23;;
15712;SDS011;7957;51.608;6.916;2023-02-19T11:39:44;7.90;;;5.37;;
15712;SDS011;7957;51.608;6.916;2023-02-19T11:45:15;7.03;;;6.10;;
15712;SDS011;7957;51.608;6.916;2023-02-19T11:50:54;7.93;;;6.17;;
15712;SDS011;7957;51.608;6.916;2023-02-19T11:53:30;7.60;;;6.47;;
15712;SDS011;7957;51.608;6.916;2023-02-19T11:56:12;8.17;;;6.13;;
15712;SDS011;7957;51.608;6.916;2023-02-19T12:01:37;7.67;;;6.23;;
15712;SDS011;7957;51.608;6.916;2023-02-19T12:10:42;6.57;;;5.63;;
15712;SDS011;7957;51.608;6.916;2023-02-19T12:13:38;7.07;;;5.13;;
15712;SDS011;7957;51.608;6.916;2023-02-19T12:16:21;8.03;;;5.27;;
15712;SDS011;7957;51.608;6.916;2023-02-19T12:19:02;4.80;;;3.63;;
15712;SDS011;7957;51.608;6.916;2023-02-19T12:24:43;8.10;;;3.43;;
15712;SDS011;7957;51.608;6.916;2023-02-19T12:27:48;4.67;;;3.10;;
15712;SDS011;7957;51.608;6.916;2023-02-19T12:30:40;5.00;;;3.20;;
15712;SDS011;7957;51.608;6.916;2023-02-19T12:36:26;6.40;;;3.37;;
15712;SDS011;7957;51.608;6.916;2023-02-19T12:39:04;6.57;;;3.93;;
15712;SDS011;7957;51.608;6.916;2023-02-19T12:41:39;8.27;;;4.20;;
15712;SDS011;7957;51.608;6.916;2023-02-19T12:44:10;6.90;;;5.60;;
15712;SDS011;7957;51.608;6.916;2023-02-19T12:46:44;6.43;;;5.83;;
15712;SDS011;7957;51.608;6.916;2023-02-19T12:49:14;7.10;;;6.07;;
15712;SDS011;7957;51.608;6.916;2023-02-19T12:51:50;6.03;;;5.50;;
15712;SDS011;7957;51.608;6.916;2023-02-19T12:54:26;6.57;;;5.63;;
15712;SDS011;7957;51.608;6.916;2023-02-19T12:56:58;8.27;;;5.07;;
15712;SDS011;7957;51.608;6.916;2023-02-19T12:59:28;5.73;;;5.20;;
15712;SDS011;7957;51.608;6.916;2023-02-19T13:01:59;5.87;;;5.37;;
15712;SDS011;7957;51.608;6.916;2023-02-19T13:04:33;7.07;;;5.83;;
15712;SDS011;7957;51.608;6.916;2023-02-19T13:07:08;5.63;;;5.13;;
15712;SDS011;7957;51.608;6.916;2023-02-19T13:09:42;6.13;;;5.47;;
15712;SDS011;7957;51.608;6.916;2023-02-19T13:12:15;7.03;;;5.13;;
15712;SDS011;7957;51.608;6.916;2023-02-19T13:14:47;5.50;;;5.00;;
15712;SDS011;7957;51.608;6.916;2023-02-19T13:17:19;7.20;;;5.27;;
15712;SDS011;7957;51.608;6.916;2023-02-19T13:19:53;5.80;;;5.20;;
15712;SDS011;7957;51.608;6.916;2023-02-19T13:22:25;7.87;;;6.73;;
15712;SDS011;7957;51.608;6.916;2023-02-19T13:25:15;7.40;;;5.60;;
15712;SDS011;7957;51.608;6.916;2023-02-19T13:27:54;6.40;;;5.70;;
15712;SDS011;7957;51.608;6.916;2023-02-19T13:30:29;6.27;;;5.63;;
15712;SDS011;7957;51.608;6.916;2023-02-19T13:33:12;6.27;;;5.67;;
15712;SDS011;7957;51.608;6.916;2023-02-19T13:35:52;5.90;;;5.30;;
15712;SDS011;7957;51.608;6.916;2023-02-19T13:38:30;5.57;;;4.93;;
15712;SDS011;7957;51.608;6.916;2023-02-19T13:40:59;6.73;;;5.63;;
15712;SDS011;7957;51.608;6.916;2023-02-19T13:43:26;6.00;;;5.37;;
15712;SDS011;7957;51.608;6.916;2023-02-19T13:45:59;6.03;;;5.17;;
15712;SDS011;7957;51.608;6.916;2023-02-19T13:48:29;8.17;;;5.03;;
15712;SDS011;7957;51.608;6.916;2023-02-19T13:54:18;6.17;;;5.57;;
15712;SDS011;7957;51.608;6.916;2023-02-19T13:56:49;5.67;;;5.07;;
15712;SDS011;7957;51.608;6.916;2023-02-19T13:59:36;5.37;;;4.87;;
15712;SDS011;7957;51.608;6.916;2023-02-19T14:02:07;7.43;;;4.90;;
15712;SDS011;7957;51.608;6.916;2023-02-19T14:04:42;5.73;;;4.73;;
15712;SDS011;7957;51.608;6.916;2023-02-19T14:07:19;7.20;;;5.33;;
15712;SDS011;7957;51.608;6.916;2023-02-19T14:09:58;5.30;;;4.90;;
15712;SDS011;7957;51.608;6.916;2023-02-19T14:12:30;6.20;;;5.33;;
15712;SDS011;7957;51.608;6.916;2023-02-19T14:21:05;7.17;;;4.93;;
15712;SDS011;7957;51.608;6.916;2023-02-19T14:23:39;5.97;;;4.60;;
15712;SDS011;7957;51.608;6.916;2023-02-19T14:26:06;5.73;;;4.67;;
15712;SDS011;7957;51.608;6.916;2023-02-19T14:28:35;4.80;;;4.40;;
15712;SDS011;7957;51.608;6.916;2023-02-19T14:31:17;6.33;;;5.13;;
15712;SDS011;7957;51.608;6.916;2023-02-19T14:33:50;4.97;;;4.57;;
15712;SDS011;7957;51.608;6.916;2023-02-19T14:36:22;6.27;;;5.00;;
15712;SDS011;7957;51.608;6.916;2023-02-19T14:39:05;5.60;;;4.77;;
15712;SDS011;7957;51.608;6.916;2023-02-19T14:41:38;7.43;;;5.23;;
15712;SDS011;7957;51.608;6.916;2023-02-19T14:44:13;6.77;;;4.80;;
15712;SDS011;7957;51.608;6.916;2023-02-19T14:46:44;5.70;;;4.80;;
15712;SDS011;7957;51.608;6.916;2023-02-19T14:49:17;5.47;;;4.70;;
15712;SDS011;7957;51.608;6.916;2023-02-19T14:51:49;6.70;;;5.23;;
15712;SDS011;7957;51.608;6.916;2023-02-19T14:54:19;7.60;;;5.70;;
15712;SDS011;7957;51.608;6.916;2023-02-19T14:56:54;8.00;;;4.90;;
15712;SDS011;7957;51.608;6.916;2023-02-19T14:59:26;7.70;;;5.50;;
15712;SDS011;7957;51.608;6.916;2023-02-19T15:01:55;6.20;;;5.20;;
15712;SDS011;7957;51.608;6.916;2023-02-19T15:04:24;7.10;;;5.33;;
15712;SDS011;7957;51.608;6.916;2023-02-19T15:06:52;5.73;;;4.67;;
15712;SDS011;7957;51.608;6.916;2023-02-19T15:09:21;6.77;;;5.63;;
15712;SDS011;7957;51.608;6.916;2023-02-19T15:11:54;6.97;;;5.80;;
15712;SDS011;7957;51.608;6.916;2023-02-19T15:14:22;6.63;;;5.63;;
15712;SDS011;7957;51.608;6.916;2023-02-19T15:16:55;7.00;;;6.10;;
15712;SDS011;7957;51.608;6.916;2023-02-19T15:19:24;9.23;;;6.63;;
15712;SDS011;7957;51.608;6.916;2023-02-19T15:21:52;8.27;;;6.27;;
15712;SDS011;7957;51.608;6.916;2023-02-19T15:24:19;8.20;;;6.63;;
15712;SDS011;7957;51.608;6.916;2023-02-19T15:26:47;8.63;;;6.70;;
15712;SDS011;7957;51.608;6.916;2023-02-19T15:29:16;11.63;;;7.30;;
15712;SDS011;7957;51.608;6.916;2023-02-19T15:31:46;12.13;;;9.23;;
15712;SDS011;7957;51.608;6.916;2023-02-19T15:34:15;9.90;;;8.90;;
15712;SDS011;7957;51.608;6.916;2023-02-19T15:36:43;9.17;;;8.30;;
15712;SDS011;7957;51.608;6.916;2023-02-19T15:39:15;8.90;;;8.00;;
15712;SDS011;7957;51.608;6.916;2023-02-19T15:41:48;10.23;;;7.93;;
15712;SDS011;7957;51.608;6.916;2023-02-19T15:44:23;9.73;;;8.73;;